sensor_id;sensor_type;location;lat;lon;timestamp;temperature;humidity
15413;DHT22;7805;49.554;7.632;2023-06-22T00:02:06;22.70;99.90
15413;DHT22;7805;49.554;7.632;2023-06-22T00:04:32;22.70;99.90
15413;DHT22;7805;49.554;7.632;2023-06-22T00:06:57;22.40;99.90
15413;DHT22;7805;49.554;7.632;2023-06-22T00:09:23;22.40;99.90
15413;DHT22;7805;49.554;7.632;2023-06-22T00:11:48;22.30;99.90
15413;DHT22;7805;49.554;7.632;2023-06-22T00:14:14;22.30;99.90
15413;DHT22;7805;49.554;7.632;2023-06-22T00:16:40;22.30;99.90
15413;DHT22;7805;49.554;7.632;2023-06-22T00:19:06;22.20;99.90
15413;DHT22;7805;49.554;7.632;2023-06-22T00:21:32;22.20;99.90
15413;DHT22;7805;49.554;7.632;2023-06-22T00:23:58;22.20;99.90
15413;DHT22;7805;49.554;7.632;2023-06-22T00:26:24;22.20;99.90
15413;DHT22;7805;49.554;7.632;2023-06-22T00:28:50;22.20;99.90
15413;DHT22;7805;49.554;7.632;2023-06-22T00:31:15;22.20;99.90
15413;DHT22;7805;49.554;7.632;2023-06-22T00:33:41;22.20;99.90
15413;DHT22;7805;49.554;7.632;2023-06-22T00:36:06;22.20;99.90
15413;DHT22;7805;49.554;7.632;2023-06-22T00:38:38;22.30;99.90
15413;DHT22;7805;49.554;7.632;2023-06-22T00:41:05;22.30;99.90
15413;DHT22;7805;49.554;7.632;2023-06-22T00:43:31;22.20;99.90
15413;DHT22;7805;49.554;7.632;2023-06-22T00:45:56;22.40;99.90
15413;DHT22;7805;49.554;7.632;2023-06-22T00:48:22;22.10;99.90
15413;DHT22;7805;49.554;7.632;2023-06-22T00:50:48;22.20;99.90
15413;DHT22;7805;49.554;7.632;2023-06-22T00:53:15;21.00;99.90
15413;DHT22;7805;49.554;7.632;2023-06-22T00:55:44;22.30;99.90
15413;DHT22;7805;49.554;7.632;2023-06-22T00:58:12;22.40;99.90
15413;DHT22;7805;49.554;7.632;2023-06-22T01:00:40;22.50;99.90
15413;DHT22;7805;49.554;7.632;2023-06-22T01:03:06;22.50;99.90
15413;DHT22;7805;49.554;7.632;2023-06-22T01:05:35;22.50;99.90
15413;DHT22;7805;49.554;7.632;2023-06-22T01:13:16;22.40;99.90
15413;DHT22;7805;49.554;7.632;2023-06-22T01:15:53;22.40;99.90
15413;DHT22;7805;49.554;7.632;2023-06-22T01:18:22;22.40;99.90
15413;DHT22;7805;49.554;7.632;2023-06-22T01:20:55;21.90;99.90
15413;DHT22;7805;49.554;7.632;2023-06-22T01:31:07;22.20;99.90
15413;DHT22;7805;49.554;7.632;2023-06-22T01:33:37;22.10;99.90
15413;DHT22;7805;49.554;7.632;2023-06-22T01:36:03;22.10;99.90
15413;DHT22;7805;49.554;7.632;2023-06-22T01:38:30;22.20;99.90
15413;DHT22;7805;49.554;7.632;2023-06-22T01:40:57;22.20;99.90
15413;DHT22;7805;49.554;7.632;2023-06-22T01:43:28;22.20;99.90
15413;DHT22;7805;49.554;7.632;2023-06-22T01:45:58;22.20;99.90
15413;DHT22;7805;49.554;7.632;2023-06-22T01:48:23;22.10;99.90
15413;DHT22;7805;49.554;7.632;2023-06-22T01:50:52;22.10;99.90
15413;DHT22;7805;49.554;7.632;2023-06-22T01:53:18;22.10;99.90
15413;DHT22;7805;49.554;7.632;2023-06-22T01:55:43;22.10;99.90
15413;DHT22;7805;49.554;7.632;2023-06-22T01:58:09;22.20;99.90
15413;DHT22;7805;49.554;7.632;2023-06-22T02:00:37;22.20;99.90
15413;DHT22;7805;49.554;7.632;2023-06-22T02:03:29;22.20;99.90
15413;DHT22;7805;49.554;7.632;2023-06-22T02:06:01;22.10;99.90
15413;DHT22;7805;49.554;7.632;2023-06-22T02:08:54;22.00;99.90
15413;DHT22;7805;49.554;7.632;2023-06-22T02:11:21;22.00;99.90
15413;DHT22;7805;49.554;7.632;2023-06-22T02:13:48;22.00;99.90
15413;DHT22;7805;49.554;7.632;2023-06-22T02:16:15;21.90;99.90
15413;DHT22;7805;49.554;7.632;2023-06-22T02:18:49;21.90;99.90
15413;DHT22;7805;49.554;7.632;2023-06-22T02:21:18;21.60;99.90
15413;DHT22;7805;49.554;7.632;2023-06-22T02:23:43;21.50;99.90
15413;DHT22;7805;49.554;7.632;2023-06-22T02:26:09;21.50;99.90
15413;DHT22;7805;49.554;7.632;2023-06-22T02:28:35;21.80;99.90
15413;DHT22;7805;49.554;7.632;2023-06-22T02:31:00;21.50;99.90
15413;DHT22;7805;49.554;7.632;2023-06-22T02:33:26;21.80;99.90
15413;DHT22;7805;49.554;7.632;2023-06-22T02:35:52;21.40;99.90
15413;DHT22;7805;49.554;7.632;2023-06-22T02:38:18;21.50;99.90
15413;DHT22;7805;49.554;7.632;2023-06-22T02:40:44;21.50;99.90
15413;DHT22;7805;49.554;7.632;2023-06-22T02:43:10;21.60;99.90
15413;DHT22;7805;49.554;7.632;2023-06-22T02:45:35;21.50;99.90
15413;DHT22;7805;49.554;7.632;2023-06-22T02:48:01;21.60;99.90
15413;DHT22;7805;49.554;7.632;2023-06-22T02:50:27;21.60;99.90
15413;DHT22;7805;49.554;7.632;2023-06-22T02:52:52;21.80;99.90
15413;DHT22;7805;49.554;7.632;2023-06-22T02:57:47;21.70;99.90
15413;DHT22;7805;49.554;7.632;2023-06-22T03:00:14;21.70;99.90
15413;DHT22;7805;49.554;7.632;2023-06-22T03:02:47;21.70;99.90
15413;DHT22;7805;49.554;7.632;2023-06-22T03:05:14;21.60;99.90
15413;DHT22;7805;49.554;7.632;2023-06-22T03:07:49;21.60;99.90
15413;DHT22;7805;49.554;7.632;2023-06-22T03:10:15;21.60;99.90
15413;DHT22;7805;49.554;7.632;2023-06-22T03:12:42;21.60;99.90
15413;DHT22;7805;49.554;7.632;2023-06-22T03:15:09;21.50;99.90
15413;DHT22;7805;49.554;7.632;2023-06-22T03:17:36;21.40;99.90
15413;DHT22;7805;49.554;7.632;2023-06-22T03:20:04;21.50;99.90
15413;DHT22;7805;49.554;7.632;2023-06-22T03:22:38;21.50;99.90
15413;DHT22;7805;49.554;7.632;2023-06-22T03:25:03;21.40;99.90
15413;DHT22;7805;49.554;7.632;2023-06-22T03:27:29;21.40;99.90
15413;DHT22;7805;49.554;7.632;2023-06-22T03:29:57;21.30;99.90
15413;DHT22;7805;49.554;7.632;2023-06-22T03:32:23;21.30;99.90
15413;DHT22;7805;49.554;7.632;2023-06-22T03:34:48;21.20;99.90
15413;DHT22;7805;49.554;7.632;2023-06-22T03:37:14;21.10;99.90
15413;DHT22;7805;49.554;7.632;2023-06-22T03:39:41;21.10;99.90
15413;DHT22;7805;49.554;7.632;2023-06-22T03:42:07;21.10;99.90
15413;DHT22;7805;49.554;7.632;2023-06-22T03:44:32;21.20;99.90
15413;DHT22;7805;49.554;7.632;2023-06-22T03:46:58;21.30;99.90
15413;DHT22;7805;49.554;7.632;2023-06-22T03:49:24;21.50;99.90
15413;DHT22;7805;49.554;7.632;2023-06-22T03:51:49;21.30;99.90
15413;DHT22;7805;49.554;7.632;2023-06-22T03:54:15;21.20;99.90
15413;DHT22;7805;49.554;7.632;2023-06-22T03:56:40;21.50;99.90
15413;DHT22;7805;49.554;7.632;2023-06-22T03:59:06;21.20;99.90
15413;DHT22;7805;49.554;7.632;2023-06-22T04:01:31;21.30;99.90
15413;DHT22;7805;49.554;7.632;2023-06-22T04:03:57;21.10;99.90
15413;DHT22;7805;49.554;7.632;2023-06-22T04:06:23;21.10;99.90
15413;DHT22;7805;49.554;7.632;2023-06-22T04:08:48;21.00;99.90
15413;DHT22;7805;49.554;7.632;2023-06-22T04:11:16;21.00;99.90
15413;DHT22;7805;49.554;7.632;2023-06-22T04:13:43;21.00;99.90
15413;DHT22;7805;49.554;7.632;2023-06-22T04:16:09;21.10;99.90
15413;DHT22;7805;49.554;7.632;2023-06-22T04:18:34;21.10;99.90
15413;DHT22;7805;49.554;7.632;2023-06-22T04:21:00;21.20;99.90
15413;DHT22;7805;49.554;7.632;2023-06-22T04:23:25;21.20;99.90
15413;DHT22;7805;49.554;7.632;2023-06-22T04:25:51;21.20;99.90
15413;DHT22;7805;49.554;7.632;2023-06-22T04:28:17;21.20;99.90
15413;DHT22;7805;49.554;7.632;2023-06-22T04:30:42;21.20;99.90
15413;DHT22;7805;49.554;7.632;2023-06-22T04:33:15;21.20;99.90
15413;DHT22;7805;49.554;7.632;2023-06-22T04:35:40;21.20;99.90
15413;DHT22;7805;49.554;7.632;2023-06-22T04:38:07;21.20;99.90
15413;DHT22;7805;49.554;7.632;2023-06-22T04:40:32;21.20;99.90
15413;DHT22;7805;49.554;7.632;2023-06-22T04:42:58;21.30;99.90
15413;DHT22;7805;49.554;7.632;2023-06-22T04:45:28;21.30;99.90
15413;DHT22;7805;49.554;7.632;2023-06-22T04:47:54;21.40;99.90
15413;DHT22;7805;49.554;7.632;2023-06-22T04:50:20;21.50;99.90
15413;DHT22;7805;49.554;7.632;2023-06-22T04:52:47;21.60;99.90
15413;DHT22;7805;49.554;7.632;2023-06-22T04:55:14;21.70;99.90
15413;DHT22;7805;49.554;7.632;2023-06-22T04:57:44;21.70;99.90
15413;DHT22;7805;49.554;7.632;2023-06-22T05:00:15;21.80;99.90
15413;DHT22;7805;49.554;7.632;2023-06-22T05:02:43;21.80;99.90
15413;DHT22;7805;49.554;7.632;2023-06-22T05:05:09;21.90;99.90
15413;DHT22;7805;49.554;7.632;2023-06-22T05:07:42;22.10;99.90
15413;DHT22;7805;49.554;7.632;2023-06-22T05:10:10;22.20;99.90
15413;DHT22;7805;49.554;7.632;2023-06-22T05:12:36;22.30;99.90
15413;DHT22;7805;49.554;7.632;2023-06-22T05:15:02;22.50;99.90
15413;DHT22;7805;49.554;7.632;2023-06-22T05:17:28;22.50;99.90
15413;DHT22;7805;49.554;7.632;2023-06-22T05:19:53;22.60;99.90
15413;DHT22;7805;49.554;7.632;2023-06-22T05:22:20;22.70;99.90
15413;DHT22;7805;49.554;7.632;2023-06-22T05:24:46;22.70;99.90
15413;DHT22;7805;49.554;7.632;2023-06-22T05:27:12;22.80;99.90
15413;DHT22;7805;49.554;7.632;2023-06-22T05:29:39;22.90;99.90
15413;DHT22;7805;49.554;7.632;2023-06-22T05:32:05;23.10;99.90
15413;DHT22;7805;49.554;7.632;2023-06-22T05:34:31;23.10;99.90
15413;DHT22;7805;49.554;7.632;2023-06-22T05:36:56;23.30;99.90
15413;DHT22;7805;49.554;7.632;2023-06-22T05:39:24;23.30;99.90
15413;DHT22;7805;49.554;7.632;2023-06-22T05:41:50;23.50;99.90
15413;DHT22;7805;49.554;7.632;2023-06-22T05:44:15;23.60;99.90
15413;DHT22;7805;49.554;7.632;2023-06-22T05:46:42;23.80;99.90
15413;DHT22;7805;49.554;7.632;2023-06-22T05:49:12;24.00;99.90
15413;DHT22;7805;49.554;7.632;2023-06-22T05:51:38;24.20;99.90
15413;DHT22;7805;49.554;7.632;2023-06-22T05:54:04;24.10;99.90
15413;DHT22;7805;49.554;7.632;2023-06-22T05:56:30;24.10;99.90
15413;DHT22;7805;49.554;7.632;2023-06-22T05:58:55;24.20;99.90
15413;DHT22;7805;49.554;7.632;2023-06-22T06:01:21;24.30;99.90
15413;DHT22;7805;49.554;7.632;2023-06-22T06:03:47;24.30;99.90
15413;DHT22;7805;49.554;7.632;2023-06-22T06:06:14;24.30;99.90
15413;DHT22;7805;49.554;7.632;2023-06-22T06:08:41;24.40;99.90
15413;DHT22;7805;49.554;7.632;2023-06-22T06:11:07;24.40;99.90
15413;DHT22;7805;49.554;7.632;2023-06-22T06:13:32;24.40;99.90
15413;DHT22;7805;49.554;7.632;2023-06-22T06:15:58;24.50;99.90
15413;DHT22;7805;49.554;7.632;2023-06-22T06:18:24;24.70;99.90
15413;DHT22;7805;49.554;7.632;2023-06-22T06:20:50;24.80;99.90
15413;DHT22;7805;49.554;7.632;2023-06-22T06:23:15;25.00;99.90
15413;DHT22;7805;49.554;7.632;2023-06-22T06:25:41;25.20;99.90
15413;DHT22;7805;49.554;7.632;2023-06-22T06:28:06;25.50;99.90
15413;DHT22;7805;49.554;7.632;2023-06-22T06:30:32;25.90;99.90
15413;DHT22;7805;49.554;7.632;2023-06-22T06:32:58;26.10;99.90
15413;DHT22;7805;49.554;7.632;2023-06-22T06:35:23;25.90;99.90
15413;DHT22;7805;49.554;7.632;2023-06-22T06:37:50;25.70;99.90
15413;DHT22;7805;49.554;7.632;2023-06-22T06:40:17;25.80;99.90
15413;DHT22;7805;49.554;7.632;2023-06-22T06:42:47;25.80;99.90
15413;DHT22;7805;49.554;7.632;2023-06-22T06:45:19;26.00;99.90
15413;DHT22;7805;49.554;7.632;2023-06-22T06:47:46;26.20;99.90
15413;DHT22;7805;49.554;7.632;2023-06-22T06:50:12;26.60;99.90
15413;DHT22;7805;49.554;7.632;2023-06-22T06:52:38;26.70;99.90
15413;DHT22;7805;49.554;7.632;2023-06-22T06:55:04;26.90;99.90
15413;DHT22;7805;49.554;7.632;2023-06-22T06:57:33;26.80;99.90
15413;DHT22;7805;49.554;7.632;2023-06-22T06:59:59;27.10;99.90
15413;DHT22;7805;49.554;7.632;2023-06-22T07:02:26;27.20;99.90
15413;DHT22;7805;49.554;7.632;2023-06-22T07:04:53;27.50;99.90
15413;DHT22;7805;49.554;7.632;2023-06-22T07:07:20;27.50;99.90
15413;DHT22;7805;49.554;7.632;2023-06-22T07:09:46;27.60;99.90
15413;DHT22;7805;49.554;7.632;2023-06-22T07:12:11;27.80;99.90
15413;DHT22;7805;49.554;7.632;2023-06-22T07:14:37;27.90;99.90
15413;DHT22;7805;49.554;7.632;2023-06-22T07:17:03;27.90;99.90
15413;DHT22;7805;49.554;7.632;2023-06-22T07:19:28;28.00;99.90
15413;DHT22;7805;49.554;7.632;2023-06-22T07:21:54;28.10;99.90
15413;DHT22;7805;49.554;7.632;2023-06-22T07:24:21;28.10;99.90
15413;DHT22;7805;49.554;7.632;2023-06-22T07:26:50;28.10;99.90
15413;DHT22;7805;49.554;7.632;2023-06-22T07:29:20;28.10;99.90
15413;DHT22;7805;49.554;7.632;2023-06-22T07:31:46;28.30;99.90
15413;DHT22;7805;49.554;7.632;2023-06-22T07:34:13;28.30;99.90
15413;DHT22;7805;49.554;7.632;2023-06-22T07:36:38;28.10;99.90
15413;DHT22;7805;49.554;7.632;2023-06-22T07:39:04;28.20;99.90
15413;DHT22;7805;49.554;7.632;2023-06-22T07:41:30;28.40;99.90
15413;DHT22;7805;49.554;7.632;2023-06-22T07:43:56;28.20;99.90
15413;DHT22;7805;49.554;7.632;2023-06-22T07:46:22;28.30;99.90
15413;DHT22;7805;49.554;7.632;2023-06-22T07:48:47;28.50;99.90
15413;DHT22;7805;49.554;7.632;2023-06-22T07:51:13;28.60;99.90
15413;DHT22;7805;49.554;7.632;2023-06-22T07:53:43;28.60;99.90
15413;DHT22;7805;49.554;7.632;2023-06-22T07:56:12;28.90;99.90
15413;DHT22;7805;49.554;7.632;2023-06-22T07:58:37;29.00;99.50
15413;DHT22;7805;49.554;7.632;2023-06-22T08:01:03;29.30;99.90
15413;DHT22;7805;49.554;7.632;2023-06-22T08:03:29;29.30;99.90
15413;DHT22;7805;49.554;7.632;2023-06-22T08:05:55;29.60;99.60
15413;DHT22;7805;49.554;7.632;2023-06-22T08:08:21;29.80;99.30
15413;DHT22;7805;49.554;7.632;2023-06-22T08:10:46;29.70;98.50
15413;DHT22;7805;49.554;7.632;2023-06-22T08:13:12;29.70;98.60
15413;DHT22;7805;49.554;7.632;2023-06-22T08:15:37;29.70;98.50
15413;DHT22;7805;49.554;7.632;2023-06-22T08:18:03;29.70;98.50
15413;DHT22;7805;49.554;7.632;2023-06-22T08:20:29;29.60;98.30
15413;DHT22;7805;49.554;7.632;2023-06-22T08:22:55;29.80;98.60
15413;DHT22;7805;49.554;7.632;2023-06-22T08:25:23;29.60;98.20
15413;DHT22;7805;49.554;7.632;2023-06-22T08:27:49;29.70;97.90
15413;DHT22;7805;49.554;7.632;2023-06-22T08:30:15;29.70;97.50
15413;DHT22;7805;49.554;7.632;2023-06-22T08:32:40;30.00;97.50
15413;DHT22;7805;49.554;7.632;2023-06-22T08:35:06;30.00;97.00
15413;DHT22;7805;49.554;7.632;2023-06-22T08:37:34;29.90;97.10
15413;DHT22;7805;49.554;7.632;2023-06-22T08:40:01;29.80;97.30
15413;DHT22;7805;49.554;7.632;2023-06-22T08:42:28;29.70;97.60
15413;DHT22;7805;49.554;7.632;2023-06-22T08:44:54;29.60;97.30
15413;DHT22;7805;49.554;7.632;2023-06-22T08:47:20;29.50;97.80
15413;DHT22;7805;49.554;7.632;2023-06-22T08:49:46;29.40;97.80
15413;DHT22;7805;49.554;7.632;2023-06-22T08:52:12;29.20;98.20
15413;DHT22;7805;49.554;7.632;2023-06-22T08:54:38;29.00;98.60
15413;DHT22;7805;49.554;7.632;2023-06-22T08:57:04;29.00;98.60
15413;DHT22;7805;49.554;7.632;2023-06-22T08:59:29;29.00;98.90
15413;DHT22;7805;49.554;7.632;2023-06-22T09:01:55;29.10;99.40
15413;DHT22;7805;49.554;7.632;2023-06-22T09:04:21;29.20;99.40
15413;DHT22;7805;49.554;7.632;2023-06-22T09:06:48;29.20;99.00
15413;DHT22;7805;49.554;7.632;2023-06-22T09:09:13;29.30;98.60
15413;DHT22;7805;49.554;7.632;2023-06-22T09:11:40;29.40;98.80
15413;DHT22;7805;49.554;7.632;2023-06-22T09:14:05;29.60;98.70
15413;DHT22;7805;49.554;7.632;2023-06-22T09:16:31;29.70;98.60
15413;DHT22;7805;49.554;7.632;2023-06-22T09:18:57;30.00;98.20
15413;DHT22;7805;49.554;7.632;2023-06-22T09:21:23;30.30;97.90
15413;DHT22;7805;49.554;7.632;2023-06-22T09:23:48;30.30;97.40
15413;DHT22;7805;49.554;7.632;2023-06-22T09:26:20;30.80;97.30
15413;DHT22;7805;49.554;7.632;2023-06-22T09:28:46;31.10;96.70
15413;DHT22;7805;49.554;7.632;2023-06-22T09:31:13;31.10;96.00
15413;DHT22;7805;49.554;7.632;2023-06-22T09:33:40;31.40;95.80
15413;DHT22;7805;49.554;7.632;2023-06-22T09:36:06;31.70;95.40
15413;DHT22;7805;49.554;7.632;2023-06-22T09:38:38;31.50;95.20
15413;DHT22;7805;49.554;7.632;2023-06-22T09:41:04;31.50;94.40
15413;DHT22;7805;49.554;7.632;2023-06-22T09:43:32;31.50;95.00
15413;DHT22;7805;49.554;7.632;2023-06-22T09:45:57;31.60;95.00
15413;DHT22;7805;49.554;7.632;2023-06-22T09:48:23;31.80;95.20
15413;DHT22;7805;49.554;7.632;2023-06-22T09:50:49;31.80;94.30
15413;DHT22;7805;49.554;7.632;2023-06-22T09:53:14;31.80;94.50
15413;DHT22;7805;49.554;7.632;2023-06-22T09:55:40;31.90;94.20
15413;DHT22;7805;49.554;7.632;2023-06-22T09:58:06;31.90;93.90
15413;DHT22;7805;49.554;7.632;2023-06-22T10:00:31;31.70;93.60
15413;DHT22;7805;49.554;7.632;2023-06-22T10:02:57;31.70;93.60
15413;DHT22;7805;49.554;7.632;2023-06-22T10:05:23;31.60;93.80
15413;DHT22;7805;49.554;7.632;2023-06-22T10:07:49;31.60;93.90
15413;DHT22;7805;49.554;7.632;2023-06-22T10:10:14;31.50;93.60
15413;DHT22;7805;49.554;7.632;2023-06-22T10:12:54;33.10;95.00
15413;DHT22;7805;49.554;7.632;2023-06-22T10:15:19;32.20;94.00
15413;DHT22;7805;49.554;7.632;2023-06-22T10:17:46;32.30;93.70
15413;DHT22;7805;49.554;7.632;2023-06-22T10:20:12;32.40;93.40
15413;DHT22;7805;49.554;7.632;2023-06-22T10:22:39;32.30;92.80
15413;DHT22;7805;49.554;7.632;2023-06-22T10:25:05;32.30;92.50
15413;DHT22;7805;49.554;7.632;2023-06-22T10:27:31;31.10;92.20
15413;DHT22;7805;49.554;7.632;2023-06-22T10:29:56;32.60;92.50
15413;DHT22;7805;49.554;7.632;2023-06-22T10:32:22;32.90;92.00
15413;DHT22;7805;49.554;7.632;2023-06-22T10:34:48;33.10;92.30
15413;DHT22;7805;49.554;7.632;2023-06-22T10:37:13;33.30;91.90
15413;DHT22;7805;49.554;7.632;2023-06-22T10:39:39;33.60;91.30
15413;DHT22;7805;49.554;7.632;2023-06-22T10:42:04;33.70;91.10
15413;DHT22;7805;49.554;7.632;2023-06-22T10:44:30;33.50;90.40
15413;DHT22;7805;49.554;7.632;2023-06-22T10:46:56;33.70;90.90
15413;DHT22;7805;49.554;7.632;2023-06-22T10:49:21;34.00;90.20
15413;DHT22;7805;49.554;7.632;2023-06-22T10:51:47;33.90;89.70
15413;DHT22;7805;49.554;7.632;2023-06-22T10:54:12;33.50;89.60
15413;DHT22;7805;49.554;7.632;2023-06-22T10:56:39;33.50;90.40
15413;DHT22;7805;49.554;7.632;2023-06-22T10:59:05;33.60;90.70
15413;DHT22;7805;49.554;7.632;2023-06-22T11:01:31;33.80;90.30
15413;DHT22;7805;49.554;7.632;2023-06-22T11:03:57;34.00;90.10
15413;DHT22;7805;49.554;7.632;2023-06-22T11:06:22;34.40;89.30
15413;DHT22;7805;49.554;7.632;2023-06-22T11:08:48;34.50;88.10
15413;DHT22;7805;49.554;7.632;2023-06-22T11:11:13;34.60;86.00
15413;DHT22;7805;49.554;7.632;2023-06-22T11:13:39;34.40;85.10
15413;DHT22;7805;49.554;7.632;2023-06-22T11:16:04;34.00;86.00
15413;DHT22;7805;49.554;7.632;2023-06-22T11:18:31;34.00;86.30
15413;DHT22;7805;49.554;7.632;2023-06-22T11:20:58;34.30;85.90
15413;DHT22;7805;49.554;7.632;2023-06-22T11:23:24;34.70;85.20
15413;DHT22;7805;49.554;7.632;2023-06-22T11:25:51;35.10;84.10
15413;DHT22;7805;49.554;7.632;2023-06-22T11:28:17;35.20;83.00
15413;DHT22;7805;49.554;7.632;2023-06-22T11:30:42;35.10;81.60
15413;DHT22;7805;49.554;7.632;2023-06-22T11:33:08;35.20;80.90
15413;DHT22;7805;49.554;7.632;2023-06-22T11:35:33;35.40;80.60
15413;DHT22;7805;49.554;7.632;2023-06-22T11:37:59;35.70;79.80
15413;DHT22;7805;49.554;7.632;2023-06-22T11:40:24;35.90;78.10
15413;DHT22;7805;49.554;7.632;2023-06-22T11:42:50;36.00;77.40
15413;DHT22;7805;49.554;7.632;2023-06-22T11:45:16;36.30;76.50
15413;DHT22;7805;49.554;7.632;2023-06-22T11:47:42;36.00;74.20
15413;DHT22;7805;49.554;7.632;2023-06-22T11:50:08;34.80;74.70
15413;DHT22;7805;49.554;7.632;2023-06-22T11:52:34;35.00;75.60
15413;DHT22;7805;49.554;7.632;2023-06-22T11:55:01;35.30;76.00
15413;DHT22;7805;49.554;7.632;2023-06-22T11:57:29;35.30;74.40
15413;DHT22;7805;49.554;7.632;2023-06-22T11:59:55;35.10;74.90
15413;DHT22;7805;49.554;7.632;2023-06-22T12:02:20;35.30;75.50
15413;DHT22;7805;49.554;7.632;2023-06-22T12:04:46;35.50;75.30
15413;DHT22;7805;49.554;7.632;2023-06-22T12:07:11;35.70;74.90
15413;DHT22;7805;49.554;7.632;2023-06-22T12:09:37;35.80;74.20
15413;DHT22;7805;49.554;7.632;2023-06-22T12:12:03;35.90;74.10
15413;DHT22;7805;49.554;7.632;2023-06-22T12:14:29;35.90;74.20
15413;DHT22;7805;49.554;7.632;2023-06-22T12:16:54;36.10;72.30
15413;DHT22;7805;49.554;7.632;2023-06-22T12:19:20;35.50;72.10
15413;DHT22;7805;49.554;7.632;2023-06-22T12:21:45;35.30;74.10
15413;DHT22;7805;49.554;7.632;2023-06-22T12:24:11;35.30;73.90
15413;DHT22;7805;49.554;7.632;2023-06-22T12:26:37;35.50;73.20
15413;DHT22;7805;49.554;7.632;2023-06-22T12:29:02;35.70;73.30
15413;DHT22;7805;49.554;7.632;2023-06-22T12:31:28;35.40;73.60
15413;DHT22;7805;49.554;7.632;2023-06-22T12:33:53;35.20;73.20
15413;DHT22;7805;49.554;7.632;2023-06-22T12:36:19;35.00;73.30
15413;DHT22;7805;49.554;7.632;2023-06-22T12:38:45;35.00;72.90
15413;DHT22;7805;49.554;7.632;2023-06-22T12:41:10;35.00;72.90
15413;DHT22;7805;49.554;7.632;2023-06-22T12:43:36;35.10;71.70
15413;DHT22;7805;49.554;7.632;2023-06-22T12:46:01;35.00;71.10
15413;DHT22;7805;49.554;7.632;2023-06-22T12:48:27;35.00;71.10
15413;DHT22;7805;49.554;7.632;2023-06-22T12:50:53;35.30;71.90
15413;DHT22;7805;49.554;7.632;2023-06-22T12:53:19;35.50;71.60
15413;DHT22;7805;49.554;7.632;2023-06-22T12:55:44;35.90;70.40
15413;DHT22;7805;49.554;7.632;2023-06-22T12:58:10;35.90;69.10
15413;DHT22;7805;49.554;7.632;2023-06-22T13:00:35;36.00;70.20
15413;DHT22;7805;49.554;7.632;2023-06-22T13:03:01;35.70;70.00
15413;DHT22;7805;49.554;7.632;2023-06-22T13:05:27;35.50;70.80
15413;DHT22;7805;49.554;7.632;2023-06-22T13:07:52;35.40;70.50
15413;DHT22;7805;49.554;7.632;2023-06-22T13:10:18;34.10;68.30
15413;DHT22;7805;49.554;7.632;2023-06-22T13:12:43;35.00;70.20
15413;DHT22;7805;49.554;7.632;2023-06-22T13:15:09;35.40;70.30
15413;DHT22;7805;49.554;7.632;2023-06-22T13:17:34;35.50;68.70
15413;DHT22;7805;49.554;7.632;2023-06-22T13:20:00;35.80;68.20
15413;DHT22;7805;49.554;7.632;2023-06-22T13:24:55;35.70;66.40
15413;DHT22;7805;49.554;7.632;2023-06-22T13:27:20;35.70;65.50
15413;DHT22;7805;49.554;7.632;2023-06-22T13:29:46;35.60;65.20
15413;DHT22;7805;49.554;7.632;2023-06-22T13:32:11;35.70;65.90
15413;DHT22;7805;49.554;7.632;2023-06-22T13:34:37;35.80;65.80
15413;DHT22;7805;49.554;7.632;2023-06-22T13:37:02;35.90;65.40
15413;DHT22;7805;49.554;7.632;2023-06-22T13:39:28;36.00;64.50
15413;DHT22;7805;49.554;7.632;2023-06-22T13:41:54;36.00;65.00
15413;DHT22;7805;49.554;7.632;2023-06-22T13:44:19;36.10;64.90
15413;DHT22;7805;49.554;7.632;2023-06-22T13:46:47;36.20;63.90
15413;DHT22;7805;49.554;7.632;2023-06-22T13:49:14;35.90;62.80
15413;DHT22;7805;49.554;7.632;2023-06-22T13:51:39;35.90;63.00
15413;DHT22;7805;49.554;7.632;2023-06-22T13:54:05;35.60;63.00
15413;DHT22;7805;49.554;7.632;2023-06-22T13:56:30;35.40;63.70
15413;DHT22;7805;49.554;7.632;2023-06-22T13:58:57;35.10;64.20
15413;DHT22;7805;49.554;7.632;2023-06-22T14:01:22;35.10;64.70
15413;DHT22;7805;49.554;7.632;2023-06-22T14:03:48;35.20;65.60
15413;DHT22;7805;49.554;7.632;2023-06-22T14:06:14;35.20;65.70
15413;DHT22;7805;49.554;7.632;2023-06-22T14:08:39;35.20;66.00
15413;DHT22;7805;49.554;7.632;2023-06-22T14:11:05;35.10;65.90
15413;DHT22;7805;49.554;7.632;2023-06-22T14:13:30;34.90;66.30
15413;DHT22;7805;49.554;7.632;2023-06-22T14:15:56;34.90;67.60
15413;DHT22;7805;49.554;7.632;2023-06-22T14:18:21;35.10;67.10
15413;DHT22;7805;49.554;7.632;2023-06-22T14:20:50;35.30;64.20
15413;DHT22;7805;49.554;7.632;2023-06-22T14:23:16;34.90;62.70
15413;DHT22;7805;49.554;7.632;2023-06-22T14:25:41;34.60;63.50
15413;DHT22;7805;49.554;7.632;2023-06-22T14:28:07;34.40;62.70
15413;DHT22;7805;49.554;7.632;2023-06-22T14:30:32;34.40;62.80
15413;DHT22;7805;49.554;7.632;2023-06-22T14:32:58;34.30;63.00
15413;DHT22;7805;49.554;7.632;2023-06-22T14:35:23;34.20;64.10
15413;DHT22;7805;49.554;7.632;2023-06-22T14:37:50;34.30;64.00
15413;DHT22;7805;49.554;7.632;2023-06-22T14:40:15;34.60;63.60
15413;DHT22;7805;49.554;7.632;2023-06-22T14:42:41;34.40;63.10
15413;DHT22;7805;49.554;7.632;2023-06-22T14:45:07;34.10;63.00
15413;DHT22;7805;49.554;7.632;2023-06-22T14:47:32;33.70;63.80
15413;DHT22;7805;49.554;7.632;2023-06-22T14:49:58;33.20;64.90
15413;DHT22;7805;49.554;7.632;2023-06-22T14:52:25;32.90;65.80
15413;DHT22;7805;49.554;7.632;2023-06-22T14:54:51;32.50;67.90
15413;DHT22;7805;49.554;7.632;2023-06-22T14:57:18;32.10;76.00
15413;DHT22;7805;49.554;7.632;2023-06-22T14:59:51;31.70;79.30
15413;DHT22;7805;49.554;7.632;2023-06-22T15:02:17;31.70;80.30
15413;DHT22;7805;49.554;7.632;2023-06-22T15:04:42;31.70;78.40
15413;DHT22;7805;49.554;7.632;2023-06-22T15:07:08;32.00;80.60
15413;DHT22;7805;49.554;7.632;2023-06-22T15:09:34;32.60;78.40
15413;DHT22;7805;49.554;7.632;2023-06-22T15:11:59;33.10;77.10
15413;DHT22;7805;49.554;7.632;2023-06-22T15:14:27;33.00;69.00
15413;DHT22;7805;49.554;7.632;2023-06-22T15:16:53;32.90;65.50
15413;DHT22;7805;49.554;7.632;2023-06-22T15:19:18;32.80;64.30
15413;DHT22;7805;49.554;7.632;2023-06-22T15:21:44;33.10;65.60
15413;DHT22;7805;49.554;7.632;2023-06-22T15:24:10;33.10;63.90
15413;DHT22;7805;49.554;7.632;2023-06-22T15:26:36;32.80;61.60
15413;DHT22;7805;49.554;7.632;2023-06-22T15:29:01;32.40;61.30
15413;DHT22;7805;49.554;7.632;2023-06-22T15:31:27;32.20;62.30
15413;DHT22;7805;49.554;7.632;2023-06-22T15:33:52;31.90;63.10
15413;DHT22;7805;49.554;7.632;2023-06-22T15:36:18;32.00;63.30
15413;DHT22;7805;49.554;7.632;2023-06-22T15:38:44;32.20;63.10
15413;DHT22;7805;49.554;7.632;2023-06-22T15:41:09;32.50;62.80
15413;DHT22;7805;49.554;7.632;2023-06-22T15:43:35;32.70;62.00
15413;DHT22;7805;49.554;7.632;2023-06-22T15:46:01;32.70;61.50
15413;DHT22;7805;49.554;7.632;2023-06-22T15:48:26;32.70;60.60
15413;DHT22;7805;49.554;7.632;2023-06-22T15:50:52;32.90;61.30
15413;DHT22;7805;49.554;7.632;2023-06-22T15:53:17;33.30;61.30
15413;DHT22;7805;49.554;7.632;2023-06-22T15:55:43;33.30;60.40
15413;DHT22;7805;49.554;7.632;2023-06-22T15:58:09;33.30;60.00